createdAt,value
2023-01-20T00:01:39.389Z,95760.28
2023-01-20T00:04:06.436Z,95757.69
2023-01-20T00:06:33.453Z,95747.94
2023-01-20T00:09:02.591Z,95753.44
2023-01-20T00:11:30.177Z,95751.63
2023-01-20T00:13:59.872Z,95764.44
2023-01-20T00:16:27.425Z,95759.25
2023-01-20T00:18:55.002Z,95757.63
2023-01-20T00:21:22.456Z,95762.00
2023-01-20T00:23:50.256Z,95749.47
2023-01-20T00:26:21.140Z,95756.97
2023-01-20T00:28:48.674Z,95758.59
2023-01-20T00:31:22.776Z,95757.91
2023-01-20T00:33:51.442Z,95760.16
2023-01-20T00:36:20.739Z,95766.97
2023-01-20T00:38:48.421Z,95764.03
2023-01-20T00:41:15.749Z,95763.22
2023-01-20T00:43:43.099Z,95773.56
2023-01-20T00:46:10.497Z,95770.47
2023-01-20T00:48:37.460Z,95774.69
2023-01-20T00:51:05.807Z,95770.19
2023-01-20T00:53:32.874Z,95776.00
2023-01-20T00:56:00.067Z,95781.16
2023-01-20T00:58:27.174Z,95776.31
2023-01-20T01:00:56.041Z,95780.81
2023-01-20T01:03:23.268Z,95788.28
2023-01-20T01:05:50.315Z,95785.72
2023-01-20T01:08:17.349Z,95786.31
2023-01-20T01:10:44.142Z,95781.78
2023-01-20T01:13:11.505Z,95792.47
2023-01-20T01:15:38.314Z,95787.56
2023-01-20T01:18:05.272Z,95796.00
2023-01-20T01:20:32.226Z,95795.66
2023-01-20T01:22:59.048Z,95796.28
2023-01-20T01:25:25.935Z,95800.78
2023-01-20T01:27:52.767Z,95791.03
2023-01-20T01:30:19.723Z,95801.38
2023-01-20T01:32:47.975Z,95799.47
2023-01-20T01:35:15.208Z,95792.13
2023-01-20T01:37:42.274Z,95797.03
2023-01-20T01:40:10.347Z,95803.91
2023-01-20T01:42:37.737Z,95805.69
2023-01-20T01:45:10.664Z,95806.44
2023-01-20T01:47:45.564Z,95805.44
2023-01-20T01:50:19.661Z,95805.44
2023-01-20T01:52:50.864Z,95803.13
2023-01-20T01:55:19.598Z,95804.06
2023-01-20T01:57:48.112Z,95795.69
2023-01-20T02:00:15.339Z,95798.91
2023-01-20T02:02:44.126Z,95800.53
2023-01-20T02:05:13.851Z,95807.34
2023-01-20T02:07:44.931Z,95807.63
2023-01-20T02:10:13.141Z,95803.25
2023-01-20T02:12:41.738Z,95804.88
2023-01-20T02:15:09.497Z,95807.94
2023-01-20T02:18:12.649Z,95805.63
2023-01-20T02:21:21.908Z,95808.22
2023-01-20T02:24:21.473Z,95815.03
2023-01-20T02:27:05.147Z,95810.44
2023-01-20T02:30:01.691Z,95804.25
2023-01-20T02:32:50.604Z,95814.31
2023-01-20T02:35:40.480Z,95810.31
2023-01-20T02:38:28.505Z,95819.91
2023-01-20T02:41:16.091Z,95821.22
2023-01-20T02:44:23.101Z,95827.75
2023-01-20T02:47:02.651Z,95836.00
2023-01-20T02:50:04.264Z,95819.00
2023-01-20T02:52:44.347Z,95835.84
2023-01-20T02:55:22.418Z,95832.00
2023-01-20T02:57:56.403Z,95833.41
2023-01-20T03:00:55.804Z,95844.25
2023-01-20T03:03:35.971Z,95836.81
2023-01-20T03:06:10.041Z,95839.41
2023-01-20T03:08:39.900Z,95851.22
2023-01-20T03:11:09.205Z,95843.59
2023-01-20T03:13:49.055Z,95843.91
2023-01-20T03:16:22.913Z,95857.53
2023-01-20T03:18:50.974Z,95858.63
2023-01-20T03:21:18.507Z,95862.16
2023-01-20T03:23:49.702Z,95860.91
2023-01-20T03:26:19.275Z,95863.50
2023-01-20T03:28:48.790Z,95867.31
2023-01-20T03:31:31.079Z,95866.50
2023-01-20T03:34:00.871Z,95871.78
2023-01-20T03:36:30.199Z,95869.09
2023-01-20T03:38:58.522Z,95872.63
2023-01-20T03:41:51.383Z,95874.03
2023-01-20T03:44:37.681Z,95875.13
2023-01-20T03:47:17.606Z,95878.97
2023-01-20T03:50:09.163Z,95876.38
2023-01-20T03:52:54.252Z,95885.09
2023-01-20T03:55:34.414Z,95878.28
2023-01-20T03:58:15.741Z,95881.19
2023-01-20T04:00:49.646Z,95875.63
2023-01-20T04:03:27.154Z,95885.88
2023-01-20T04:05:56.278Z,95890.53
2023-01-20T04:08:26.763Z,95889.03
2023-01-20T04:10:55.574Z,95888.66
2023-01-20T04:13:22.422Z,95895.44
2023-01-20T04:15:50.213Z,95894.34
2023-01-20T04:18:24.214Z,95898.09
2023-01-20T04:20:57.856Z,95905.97
2023-01-20T04:23:28.631Z,95906.25
2023-01-20T04:25:55.484Z,95899.63
2023-01-20T04:28:22.395Z,95907.69
2023-01-20T04:30:49.365Z,95909.06
2023-01-20T04:33:16.307Z,95912.06
2023-01-20T04:35:43.209Z,95908.53
2023-01-20T04:38:10.075Z,95910.16
2023-01-20T04:40:36.992Z,95914.38
2023-01-20T04:43:04.085Z,95915.88
2023-01-20T04:45:30.955Z,95926.03
2023-01-20T04:47:57.860Z,95932.16
2023-01-20T04:50:24.725Z,95923.47
2023-01-20T04:52:55.750Z,95921.81
2023-01-20T04:55:22.707Z,95929.97
2023-01-20T04:57:49.543Z,95931.63
2023-01-20T05:00:20.020Z,95933.22
2023-01-20T05:02:47.656Z,95940.00
2023-01-20T05:05:14.906Z,95935.16
2023-01-20T05:07:41.926Z,95937.06
2023-01-20T05:10:09.741Z,95949.28
2023-01-20T05:12:36.575Z,95950.91
2023-01-20T05:15:03.659Z,95952.81
2023-01-20T05:17:30.640Z,95956.09
2023-01-20T05:19:57.453Z,95957.22
2023-01-20T05:22:24.358Z,95969.75
2023-01-20T05:24:51.149Z,95957.81
2023-01-20T05:27:18.020Z,95964.31
2023-01-20T05:29:44.954Z,95958.50
2023-01-20T05:32:11.897Z,95970.16
2023-01-20T05:34:38.763Z,95967.31
2023-01-20T05:37:05.650Z,95974.09
2023-01-20T05:39:32.489Z,95972.19
2023-01-20T05:41:59.278Z,95979.25
2023-01-20T05:44:26.250Z,95979.00
2023-01-20T05:46:53.245Z,95987.41
2023-01-20T05:49:20.054Z,95990.41
2023-01-20T05:51:46.838Z,95989.56
2023-01-20T05:54:13.661Z,95994.59
2023-01-20T05:56:40.493Z,96003.69
2023-01-20T05:59:08.170Z,96010.75
2023-01-20T06:01:34.968Z,96004.00
2023-01-20T06:04:01.914Z,96004.00
2023-01-20T06:06:28.795Z,96004.66
2023-01-20T06:08:55.644Z,96012.13
2023-01-20T06:11:22.728Z,96012.41
2023-01-20T06:13:49.868Z,96005.34
2023-01-20T06:16:18.379Z,96013.47
2023-01-20T06:18:45.839Z,96006.28
2023-01-20T06:21:12.788Z,96009.63
2023-01-20T06:23:39.688Z,96016.19
2023-01-20T06:26:13.487Z,96017.81
2023-01-20T06:28:41.147Z,96019.72
2023-01-20T06:31:15.592Z,96017.81
2023-01-20T06:33:43.575Z,96027.59
2023-01-20T06:36:13.779Z,96030.31
2023-01-20T06:38:40.774Z,96024.06
2023-01-20T06:41:14.931Z,96028.41
2023-01-20T06:43:42.056Z,96032.22
2023-01-20T06:46:13.026Z,96037.66
2023-01-20T06:48:40.635Z,96034.94
2023-01-20T06:51:13.142Z,96043.09
2023-01-20T06:53:40.316Z,96047.84
2023-01-20T06:56:09.198Z,96052.34
2023-01-20T06:58:36.012Z,96045.53
2023-01-20T07:01:28.410Z,96055.59
2023-01-20T07:03:55.694Z,96058.59
2023-01-20T07:06:40.517Z,96059.41
2023-01-20T07:09:10.734Z,96065.38
2023-01-20T07:11:37.826Z,96071.91
2023-01-20T07:14:05.970Z,96075.44
2023-01-20T07:16:33.567Z,96071.91
2023-01-20T07:19:00.646Z,96074.09
2023-01-20T07:21:28.158Z,96076.25
2023-01-20T07:23:55.085Z,96079.22
2023-01-20T07:26:26.273Z,96089.69
2023-01-20T07:28:53.418Z,96094.03
2023-01-20T07:31:26.883Z,96100.97
2023-01-20T07:33:57.598Z,96094.94
2023-01-20T07:36:25.006Z,96099.28
2023-01-20T07:38:53.200Z,96115.00
2023-01-20T07:41:21.359Z,96120.78
2023-01-20T07:43:50.905Z,96122.41
2023-01-20T07:46:18.599Z,96118.28
2023-01-20T07:48:45.800Z,96124.91
2023-01-20T07:51:15.248Z,96133.03
2023-01-20T07:53:48.184Z,96135.66
2023-01-20T07:56:25.635Z,96133.53
2023-01-20T07:58:54.115Z,96136.22
2023-01-20T08:01:27.975Z,96142.72
2023-01-20T08:03:55.572Z,96149.53
2023-01-20T08:06:24.986Z,96145.19
2023-01-20T08:08:52.644Z,96153.75
2023-01-20T08:11:22.270Z,96151.88
2023-01-20T08:13:49.569Z,96149.91
2023-01-20T08:16:18.624Z,96152.91
2023-01-20T08:18:46.536Z,96148.97
2023-01-20T08:21:30.713Z,96154.13
2023-01-20T08:23:59.536Z,96152.50
2023-01-20T08:26:29.445Z,96156.09
2023-01-20T08:29:06.407Z,96161.41
2023-01-20T08:31:33.600Z,96169.69
2023-01-20T08:34:00.553Z,96164.97
2023-01-20T08:36:34.907Z,96171.69
2023-01-20T08:39:04.793Z,96179.00
2023-01-20T08:41:36.198Z,96176.09
2023-01-20T08:44:05.914Z,96176.47
2023-01-20T08:46:33.451Z,96183.91
2023-01-20T08:49:00.809Z,96188.66
2023-01-20T08:51:31.812Z,96192.13
2023-01-20T08:53:59.287Z,96189.25
2023-01-20T08:56:26.948Z,96198.44
2023-01-20T08:58:54.069Z,96202.47
2023-01-20T09:01:28.738Z,96207.47
2023-01-20T09:04:05.369Z,96212.59
2023-01-20T09:06:46.389Z,96212.78
2023-01-20T09:09:15.792Z,96219.88
2023-01-20T09:11:50.518Z,96218.72
2023-01-20T09:14:22.963Z,96228.16
2023-01-20T09:16:50.643Z,96228.81
2023-01-20T09:19:17.801Z,96226.81
2023-01-20T09:21:44.897Z,96227.47
2023-01-20T09:24:12.020Z,96233.88
2023-01-20T09:26:39.056Z,96236.28
2023-01-20T09:29:12.256Z,96238.00
2023-01-20T09:31:59.030Z,96232.59
2023-01-20T09:34:29.365Z,96233.31
2023-01-20T09:37:19.650Z,96237.22
2023-01-20T09:40:06.376Z,96242.72
2023-01-20T09:43:23.965Z,96239.03
2023-01-20T09:46:10.592Z,96248.88
2023-01-20T09:49:07.357Z,96240.09
2023-01-20T09:52:30.891Z,96254.00
2023-01-20T09:55:07.882Z,96250.75
2023-01-20T09:57:40.383Z,96250.47
2023-01-20T10:00:20.460Z,96253.06
2023-01-20T10:02:53.885Z,96247.31
2023-01-20T10:05:26.939Z,96250.97
2023-01-20T10:07:59.001Z,96248.13
2023-01-20T10:10:40.990Z,96246.28
2023-01-20T10:13:44.087Z,96256.31
2023-01-20T10:16:18.801Z,96252.00
2023-01-20T10:18:57.755Z,96258.41
2023-01-20T10:22:05.147Z,96258.41
2023-01-20T10:24:39.646Z,96261.66
2023-01-20T10:27:06.511Z,96257.00
2023-01-20T10:29:41.823Z,96262.69
2023-01-20T10:32:23.723Z,96261.22
2023-01-20T10:34:56.672Z,96264.72
2023-01-20T10:37:24.475Z,96255.75
2023-01-20T10:40:10.331Z,96265.53
2023-01-20T10:42:37.145Z,96260.34
2023-01-20T10:45:06.012Z,96268.19
2023-01-20T10:47:55.791Z,96268.03
2023-01-20T10:50:31.360Z,96268.81
2023-01-20T10:53:30.266Z,96271.03
2023-01-20T10:56:08.882Z,96268.53
2023-01-20T10:58:40.925Z,96271.03
2023-01-20T11:01:12.602Z,96271.69
2023-01-20T11:03:45.597Z,96257.63
2023-01-20T11:06:25.178Z,96271.69
2023-01-20T11:08:52.712Z,96270.88
2023-01-20T11:11:22.985Z,96266.56
2023-01-20T11:13:51.822Z,96277.13
2023-01-20T11:16:25.682Z,96268.38
2023-01-20T11:19:06.053Z,96273.75
2023-01-20T11:21:36.826Z,96262.81
2023-01-20T11:24:31.878Z,96267.25
2023-01-20T11:27:12.131Z,96262.06
2023-01-20T11:29:49.986Z,96257.88
2023-01-20T11:32:36.842Z,96259.63
2023-01-20T11:35:21.242Z,96262.81
2023-01-20T11:37:48.308Z,96264.06
2023-01-20T11:40:29.123Z,96259.91
2023-01-20T11:42:55.976Z,96268.53
2023-01-20T11:45:34.641Z,96264.03
2023-01-20T11:48:05.910Z,96265.34
2023-01-20T11:50:37.332Z,96262.25
2023-01-20T11:53:27.898Z,96258.50
2023-01-20T11:55:58.753Z,96267.88
2023-01-20T11:58:55.400Z,96266.06
2023-01-20T12:01:58.179Z,96262.09
2023-01-20T12:05:01.291Z,96262.41
2023-01-20T12:07:45.029Z,96261.88
2023-01-20T12:10:24.079Z,96262.72
2023-01-20T12:13:05.945Z,96274.16
2023-01-20T12:15:38.083Z,96273.53
2023-01-20T12:18:19.512Z,96271.84
2023-01-20T12:20:55.462Z,96276.44
2023-01-20T12:23:46.073Z,96270.28
2023-01-20T12:26:18.413Z,96276.16
2023-01-20T12:29:19.485Z,96275.75
2023-01-20T12:31:49.134Z,96271.69
2023-01-20T12:34:38.924Z,96273.16
2023-01-20T12:37:39.665Z,96284.63
2023-01-20T12:40:42.216Z,96288.94
2023-01-20T12:43:37.789Z,96282.03
2023-01-20T12:46:56.813Z,96284.75
2023-01-20T12:49:45.779Z,96284.56
2023-01-20T12:53:05.524Z,96291.22
2023-01-20T12:56:10.786Z,96288.63
2023-01-20T12:59:23.874Z,96278.88
2023-01-20T13:02:20.064Z,96290.28
2023-01-20T13:05:17.032Z,96289.59
2023-01-20T13:08:24.877Z,96284.75
2023-01-20T13:11:43.589Z,96291.91
2023-01-20T13:14:28.844Z,96293.44
2023-01-20T13:17:18.683Z,96298.34
2023-01-20T13:19:47.978Z,96291.03
2023-01-20T13:22:23.062Z,96302.09
2023-01-20T13:24:56.895Z,96292.22
2023-01-20T13:27:34.741Z,96296.97
2023-01-20T13:30:05.106Z,96298.34
2023-01-20T13:32:37.925Z,96298.75
2023-01-20T13:35:27.379Z,96307.91
2023-01-20T13:38:00.138Z,96308.63
2023-01-20T13:40:36.087Z,96306.19
2023-01-20T13:43:04.276Z,96309.81
2023-01-20T13:45:31.349Z,96310.88
2023-01-20T13:48:06.985Z,96316.53
2023-01-20T13:50:37.224Z,96319.56
2023-01-20T13:53:09.934Z,96321.53
2023-01-20T13:55:45.599Z,96317.97
2023-01-20T13:58:22.279Z,96324.47
2023-01-20T14:01:01.766Z,96330.22
2023-01-20T14:03:38.147Z,96328.84
2023-01-20T14:06:11.877Z,96338.38
2023-01-20T14:08:50.766Z,96337.59
2023-01-20T14:11:24.105Z,96341.63
2023-01-20T14:13:59.038Z,96338.72
2023-01-20T14:16:37.100Z,96340.44
2023-01-20T14:19:34.221Z,96344.56
2023-01-20T14:22:27.863Z,96348.50
2023-01-20T14:25:00.785Z,96351.63
2023-01-20T14:27:35.401Z,96358.72
2023-01-20T14:30:26.590Z,96357.75
2023-01-20T14:32:54.358Z,96349.06
2023-01-20T14:35:33.606Z,96360.13
2023-01-20T14:38:01.257Z,96358.06
2023-01-20T14:40:35.337Z,96368.84
2023-01-20T14:43:20.390Z,96365.19
2023-01-20T14:45:51.515Z,96364.47
2023-01-20T14:48:33.441Z,96370.66
2023-01-20T14:51:04.142Z,96376.00
2023-01-20T14:53:31.021Z,96371.84
2023-01-20T14:56:09.705Z,96382.75
2023-01-20T14:58:44.472Z,96383.59
2023-01-20T15:01:22.709Z,96388.97
2023-01-20T15:03:59.478Z,96386.00
2023-01-20T15:06:26.841Z,96393.75
2023-01-20T15:09:06.175Z,96395.53
2023-01-20T15:11:34.334Z,96398.59
2023-01-20T15:14:01.280Z,96398.34
2023-01-20T15:16:37.006Z,96403.31
2023-01-20T15:19:20.044Z,96408.28
2023-01-20T15:21:51.169Z,96410.81
2023-01-20T15:24:34.503Z,96408.81
2023-01-20T15:27:02.718Z,96414.53
2023-01-20T15:29:33.647Z,96417.91
2023-01-20T15:32:08.787Z,96408.88
2023-01-20T15:34:35.624Z,96422.75
2023-01-20T15:37:02.551Z,96415.44
2023-01-20T15:39:30.242Z,96415.94
2023-01-20T15:41:58.145Z,96428.28
2023-01-20T15:44:26.620Z,96419.25
2023-01-20T15:46:57.368Z,96428.00
2023-01-20T15:49:25.276Z,96414.75
2023-01-20T15:51:52.613Z,96425.31
2023-01-20T15:54:19.424Z,96435.41
2023-01-20T15:56:46.286Z,96430.19
2023-01-20T15:59:19.746Z,96429.81
2023-01-20T16:01:50.368Z,96437.09
2023-01-20T16:04:17.620Z,96435.69
2023-01-20T16:06:44.874Z,96438.94
2023-01-20T16:09:24.722Z,96446.34
2023-01-20T16:11:52.035Z,96441.16
2023-01-20T16:14:19.060Z,96442.53
2023-01-20T16:16:45.913Z,96440.44
2023-01-20T16:19:13.798Z,96448.75
2023-01-20T16:21:41.355Z,96450.38
2023-01-20T16:24:09.079Z,96456.25
2023-01-20T16:26:36.084Z,96450.97
2023-01-20T16:29:04.721Z,96454.50
2023-01-20T16:31:33.317Z,96458.88
2023-01-20T16:34:00.248Z,96458.94
2023-01-20T16:36:27.103Z,96460.56
2023-01-20T16:38:54.041Z,96462.47
2023-01-20T16:41:27.977Z,96468.91
2023-01-20T16:43:56.013Z,96470.13
2023-01-20T16:46:32.697Z,96463.22
2023-01-20T16:49:01.693Z,96471.81
2023-01-20T16:51:30.343Z,96469.38
2023-01-20T16:53:58.505Z,96475.91
2023-01-20T16:56:31.404Z,96484.63
2023-01-20T16:59:01.584Z,96478.09
2023-01-20T17:01:30.038Z,96482.59
2023-01-20T17:04:02.679Z,96483.59
2023-01-20T17:06:33.567Z,96486.84
2023-01-20T17:09:04.122Z,96484.94
2023-01-20T17:11:37.982Z,96496.63
2023-01-20T17:14:09.578Z,96501.00
2023-01-20T17:16:37.915Z,96493.38
2023-01-20T17:19:05.855Z,96498.00
2023-01-20T17:21:37.746Z,96502.91
2023-01-20T17:24:05.822Z,96509.72
2023-01-20T17:26:33.386Z,96509.59
2023-01-20T17:29:03.440Z,96507.81
2023-01-20T17:31:36.615Z,96509.72
2023-01-20T17:34:07.393Z,96511.34
2023-01-20T17:36:35.004Z,96513.25
2023-01-20T17:39:03.906Z,96516.94
2023-01-20T17:41:31.068Z,96522.81
2023-01-20T17:43:57.922Z,96527.31
2023-01-20T17:46:28.936Z,96528.00
2023-01-20T17:49:04.782Z,96530.47
2023-01-20T17:51:31.645Z,96533.75
2023-01-20T17:54:01.856Z,96528.25
2023-01-20T17:56:30.413Z,96530.97
2023-01-20T17:58:57.368Z,96529.91
2023-01-20T18:01:27.912Z,96536.72
2023-01-20T18:03:58.158Z,96539.19
2023-01-20T18:06:26.905Z,96550.53
2023-01-20T18:09:00.470Z,96540.97
2023-01-20T18:11:30.965Z,96548.22
2023-01-20T18:14:00.282Z,96545.38
2023-01-20T18:16:31.067Z,96545.19
2023-01-20T18:19:01.190Z,96545.47
2023-01-20T18:21:37.097Z,96558.59
2023-01-20T18:24:07.340Z,96557.06
2023-01-20T18:26:37.487Z,96551.53
2023-01-20T18:29:08.185Z,96553.69
2023-01-20T18:31:35.914Z,96552.19
2023-01-20T18:34:06.361Z,96559.75
2023-01-20T18:36:39.892Z,96556.47
2023-01-20T18:39:17.350Z,96557.00
2023-01-20T18:41:44.737Z,96557.13
2023-01-20T18:44:11.762Z,96555.63
2023-01-20T18:46:38.789Z,96561.34
2023-01-20T18:49:09.402Z,96563.50
2023-01-20T18:51:36.632Z,96555.09
2023-01-20T18:54:11.891Z,96560.38
2023-01-20T18:56:39.364Z,96561.06
2023-01-20T18:59:07.382Z,96564.75
2023-01-20T19:01:37.893Z,96561.38
2023-01-20T19:04:06.547Z,96569.38
2023-01-20T19:06:40.669Z,96562.97
2023-01-20T19:09:08.273Z,96568.69
2023-01-20T19:11:39.585Z,96570.63
2023-01-20T19:14:11.667Z,96564.88
2023-01-20T19:16:42.112Z,96574.69
2023-01-20T19:19:11.705Z,96566.00
2023-01-20T19:21:38.815Z,96568.69
2023-01-20T19:24:07.893Z,96582.91
2023-01-20T19:26:38.899Z,96576.63
2023-01-20T19:29:08.847Z,96576.63
2023-01-20T19:31:39.359Z,96578.53
2023-01-20T19:34:08.132Z,96584.25
2023-01-20T19:36:35.776Z,96582.66
2023-01-20T19:39:03.135Z,96584.25
2023-01-20T19:41:35.925Z,96589.19
2023-01-20T19:44:06.492Z,96590.25
2023-01-20T19:46:36.627Z,96586.72
2023-01-20T19:49:03.668Z,96598.44
2023-01-20T19:51:31.423Z,96599.25
2023-01-20T19:54:00.723Z,96597.75
2023-01-20T19:56:31.792Z,96600.91
2023-01-20T19:59:02.897Z,96603.22
2023-01-20T20:01:36.799Z,96599.25
2023-01-20T20:04:10.247Z,96602.00
2023-01-20T20:06:48.552Z,96608.28
2023-01-20T20:09:23.390Z,96603.38
2023-01-20T20:11:50.451Z,96604.97
2023-01-20T20:14:20.162Z,96615.66
2023-01-20T20:16:47.679Z,96613.47
2023-01-20T20:19:18.882Z,96607.06
2023-01-20T20:21:46.274Z,96616.44
2023-01-20T20:24:15.488Z,96617.56
2023-01-20T20:26:44.525Z,96624.78
2023-01-20T20:29:12.838Z,96612.38
2023-01-20T20:31:40.493Z,96619.88
2023-01-20T20:34:12.866Z,96624.63
2023-01-20T20:36:40.052Z,96627.91
2023-01-20T20:39:07.923Z,96621.09
2023-01-20T20:41:36.588Z,96626.81
2023-01-20T20:44:04.331Z,96621.22
2023-01-20T20:46:31.620Z,96607.72
2023-01-20T20:49:00.863Z,96620.78
2023-01-20T20:51:33.995Z,96623.75
2023-01-20T20:54:02.548Z,96624.56
2023-01-20T20:56:33.541Z,96636.56
2023-01-20T20:59:03.436Z,96633.56
2023-01-20T21:01:34.553Z,96626.31
2023-01-20T21:04:03.282Z,96631.38
2023-01-20T21:06:31.273Z,96628.63
2023-01-20T21:09:01.459Z,96628.25
2023-01-20T21:11:29.177Z,96626.91
2023-01-20T21:13:56.373Z,96615.91
2023-01-20T21:16:24.748Z,96621.75
2023-01-20T21:18:59.419Z,96627.50
2023-01-20T21:21:28.690Z,96629.13
2023-01-20T21:23:57.396Z,96630.38
2023-01-20T21:26:29.603Z,96633.94
2023-01-20T21:28:57.595Z,96635.94
2023-01-20T21:31:26.812Z,96629.13
2023-01-20T21:34:00.228Z,96639.91
2023-01-20T21:36:29.477Z,96641.44
2023-01-20T21:38:56.313Z,96644.19
2023-01-20T21:41:23.244Z,96641.34
2023-01-20T21:44:08.967Z,96641.16
2023-01-20T21:46:40.612Z,96642.00
2023-01-20T21:49:27.370Z,96639.56
2023-01-20T21:52:14.627Z,96643.34
2023-01-20T21:54:42.042Z,96646.63
2023-01-20T21:57:09.237Z,96648.50
2023-01-20T21:59:36.347Z,96653.16
2023-01-20T22:02:03.197Z,96650.13
2023-01-20T22:04:30.095Z,96648.50
2023-01-20T22:06:56.987Z,96657.94
2023-01-20T22:09:23.806Z,96656.81
2023-01-20T22:11:50.727Z,96656.09
2023-01-20T22:14:17.903Z,96655.69
2023-01-20T22:16:44.850Z,96665.59
2023-01-20T22:19:16.063Z,96662.09
2023-01-20T22:21:43.090Z,96662.63
2023-01-20T22:24:11.034Z,96672.78
2023-01-20T22:26:39.033Z,96663.47
2023-01-20T22:29:06.328Z,96671.41
2023-01-20T22:31:34.357Z,96663.13
2023-01-20T22:34:04.418Z,96678.38
2023-01-20T22:36:32.083Z,96666.38
2023-01-20T22:38:58.963Z,96670.19
2023-01-20T22:41:26.264Z,96672.47
2023-01-20T22:43:53.589Z,96678.44
2023-01-20T22:46:22.676Z,96666.28
2023-01-20T22:48:49.648Z,96676.63
2023-01-20T22:51:25.511Z,96680.09
2023-01-20T22:54:00.713Z,96683.81
2023-01-20T22:56:32.440Z,96680.66
2023-01-20T22:59:00.200Z,96685.88
2023-01-20T23:01:30.919Z,96688.09
2023-01-20T23:04:00.692Z,96685.47
2023-01-20T23:06:30.554Z,96686.22
2023-01-20T23:08:57.376Z,96683.81
2023-01-20T23:11:24.326Z,96695.53
2023-01-20T23:13:52.335Z,96681.56
2023-01-20T23:16:24.872Z,96685.97
2023-01-20T23:18:52.034Z,96694.94
2023-01-20T23:21:20.125Z,96693.91
2023-01-20T23:23:54.115Z,96692.00
2023-01-20T23:26:24.324Z,96686.09
2023-01-20T23:28:52.787Z,96691.31
2023-01-20T23:31:20.598Z,96685.72
2023-01-20T23:33:47.734Z,96680.81
2023-01-20T23:36:24.487Z,96686.00
2023-01-20T23:38:54.534Z,96683.56
2023-01-20T23:41:21.528Z,96682.69
2023-01-20T23:43:48.692Z,96681.91
2023-01-20T23:46:15.533Z,96678.88
2023-01-20T23:48:44.859Z,96683.81
2023-01-20T23:51:11.729Z,96691.19
2023-01-20T23:53:40.424Z,96694.09
2023-01-20T23:56:24.087Z,96700.09
2023-01-20T23:58:51.812Z,96697.44
